CheckWX is a tool to help pilots better visualize weather data.  It is not intended as a substitute for an official pre-flight weather briefing.

18:57:17 UTC

9A5 METAR
Barwick Lafayette Airport
Lafayette, Georgia, USA
Current

22 mins ago

K9A5 221835Z AUTO 02006KT 2 1/2SM BKN007 BKN013 OVC020 09/09 A3022 RMK AO2 T00910087
Observed
Feb-22 @ 18:35 UTC
Wind
  • 020° at 6 KTS
Visibility
2 1/2 SM
Flight Rules
IFR
Cloud Levels
  • Broken at 700' AGL
  • Broken at 1,300' AGL
  • Overcast at 2,000' AGL
Temperature
C / 48°F
Dewpoint
C / 48°F
Humidity
100%
Altimeter
30.22" Hg
Pressure
1023.42 hPa
Previous

42 mins ago

K9A5 221815Z AUTO 00000KT 2 1/2SM BKN007 OVC013 09/09 A3023 RMK AO2 T00900086
Observed
Feb-22 @ 18:15 UTC
Visibility
2 1/2 SM
Flight Rules
IFR
Cloud Levels
  • Broken at 700' AGL
  • Overcast at 1,300' AGL
Temperature
C / 48°F
Dewpoint
C / 48°F
Humidity
100%
Altimeter
30.23" Hg
Pressure
1023.72 hPa
Previous

1 hour ago

K9A5 221755Z AUTO 02006KT 3SM BKN010 OVC016 09/09 A3023 RMK AO2 T00900085 10090 20075
Observed
Feb-22 @ 17:55 UTC
Wind
  • 020° at 6 KTS
Visibility
3 SM
Flight Rules
MVFR
Cloud Levels
  • Broken at 1,000' AGL
  • Overcast at 1,600' AGL
Temperature
C / 48°F
Dewpoint
C / 48°F
Humidity
100%
Altimeter
30.23" Hg
Pressure
1023.72 hPa